Cetacea — WDG7421 — position and weather

sailwx.info

Track history (hours):
 
Tides and Currents Weather Stations Pressure Air Temp Water Temp Dewpoint Dewpoint Depression Visibility Wind Speed Wind Dir Waves Ship Positions

Cetacea

Owner: Boston Harbor Cruises, Boston, MA. More information available from US FCC via Universal Licensing System and Coast Guard Vessel Documentation Center.

Last reported at 2017-Nov-02 14:37 UTC. Time now 2017-Nov-19 16:06 UTC.
Position N 42°22' W 071°03'.
Warning: this ship's position is 17 days out of date.

Length 25 m; draft 2 m.

Type: Passenger vessel. MMSI: 367567110.

Date/timePositionNaut miles runAvg speedWind from/ knotsBaromVisibWave heightAir tempDewpointWater temp
2017-Nov-02 14:37N 42°22' W 071°03'0 1.3
2017-Nov-02 14:30N 42°22' W 071°03'816.3
2017-Nov-02 14:00N 42°25' W 070°53'612.8
2017-Nov-02 13:30N 42°31' W 070°53'0 0.0
2017-Nov-01 01:22N 42°31' W 070°53'0 0.6
2017-Nov-01 01:00N 42°31' W 070°53'918.5
2017-Nov-01 00:31N 42°22' W 070°55'611.8
2017-Nov-01 00:00N 42°22' W 071°03'815.4
2017-Oct-31 23:31N 42°24' W 070°53'714.4
2017-Oct-31 23:01N 42°31' W 070°53'0 0.0
2017-Oct-31 22:30N 42°31' W 070°53'714.2
2017-Oct-31 22:00N 42°24' W 070°53'815.6
2017-Oct-31 21:30N 42°22' W 071°03'0 0.0
2017-Oct-31 21:00N 42°22' W 071°03'714.9
2017-Oct-31 20:30N 42°24' W 070°53'714.6
2017-Oct-31 20:00N 42°31' W 070°53'0 0.1
2017-Oct-31 19:31N 42°31' W 070°53'815.3
2017-Oct-31 19:01N 42°24' W 070°54'712.9
2017-Oct-31 18:28N 42°22' W 071°03'0 0.0
2017-Oct-31 18:00N 42°22' W 071°03'815.7
2017-Oct-31 17:31N 42°24' W 070°53'713.7
2017-Oct-31 17:00N 42°31' W 070°53'3 6.7
2017-Oct-31 16:30N 42°29' W 070°49'1223.5
2017-Oct-31 16:01N 42°21' W 071°00'1 1.2
2017-Oct-31 15:30N 42°21' W 071°01'1121.8
2017-Oct-31 15:00N 42°28' W 070°50'4 7.2
2017-Oct-31 14:30N 42°31' W 070°52'1020.2
2017-Oct-31 14:01N 42°22' W 070°56'510.8
2017-Oct-31 13:30N 42°22' W 071°03'0 0.0
2017-Oct-31 13:00N 42°22' W 071°03'0 0.0
2017-Oct-31 12:30N 42°22' W 071°03'0 0.0
2017-Oct-31 12:00N 42°22' W 071°03'817.0
2017-Oct-31 11:30N 42°25' W 070°52'612.4
2017-Oct-31 11:00N 42°31' W 070°53'0 0.0
2017-Oct-31 10:30N 42°31' W 070°53'0 0.0
2017-Oct-29 23:55N 42°31' W 070°53'0 0.0
2017-Oct-29 23:31N 42°31' W 070°53'0 0.0
2017-Oct-29 23:00N 42°31' W 070°53'0 0.0
2017-Oct-29 22:31N 42°31' W 070°53'713.3
2017-Oct-29 22:01N 42°25' W 070°53'816.1
2017-Oct-29 21:31N 42°22' W 071°03'0 0.0
2017-Oct-29 21:00N 42°22' W 071°03'714.6
2017-Oct-29 20:31N 42°24' W 070°54'714.6
2017-Oct-29 20:00N 42°31' W 070°53'0 0.0
2017-Oct-29 19:30N 42°31' W 070°53'714.4
2017-Oct-29 19:00N 42°24' W 070°53'815.3
2017-Oct-29 18:31N 42°22' W 071°03'0 0.0
2017-Oct-29 18:00N 42°22' W 071°03'815.5
2017-Oct-29 17:31N 42°24' W 070°53'713.7
2017-Oct-29 17:00N 42°31' W 070°53'4 7.1
2017-Oct-29 16:30N 42°29' W 070°49'1223.6
2017-Oct-29 16:01N 42°21' W 071°01'1 2.5
2017-Oct-29 15:30N 42°21' W 071°02'1019.7
2017-Oct-29 15:00N 42°27' W 070°51'5 9.8
2017-Oct-29 14:30N 42°31' W 070°53'816.7
2017-Oct-29 14:00N 42°23' W 070°54'612.9
2017-Oct-29 13:30N 42°22' W 071°03'0 0.0
2017-Oct-29 13:00N 42°22' W 071°03'816.9
2017-Oct-29 12:30N 42°24' W 070°52'1 0.1
2017-Oct-28 19:00N 42°24' W 070°53'714.8
2017-Oct-28 18:30N 42°22' W 071°03'0 0.0
2017-Oct-28 18:00N 42°22' W 071°03'817.0
2017-Oct-28 17:30N 42°25' W 070°52'612.2
2017-Oct-28 17:00N 42°31' W 070°53'612.4
2017-Oct-28 16:30N 42°25' W 070°52'917.3
2017-Oct-28 16:00N 42°22' W 071°03'2 4.3
2017-Oct-28 15:31N 42°21' W 071°00'1122.3
2017-Oct-28 15:00N 42°29' W 070°50'3 6.4
2017-Oct-28 14:30N 42°31' W 070°52'918.5
2017-Oct-28 14:00N 42°22' W 070°55'611.8
2017-Oct-28 13:30N 42°22' W 071°03'0 0.0
2017-Oct-28 13:00N 42°22' W 071°03'815.1
2017-Oct-28 12:31N 42°24' W 070°53'713.8
2017-Oct-28 12:00N 42°31' W 070°53'0 0.0
2017-Oct-28 11:30N 42°31' W 070°53'0 0.1
2017-Oct-28 11:00N 42°31' W 070°53'  
Track history (hours):
 
Tides and Currents Weather Stations Pressure Air Temp Water Temp Dewpoint Dewpoint Depression Visibility Wind Speed Wind Dir Waves Ship Positions

Cetacea

Owner: Boston Harbor Cruises, Boston, MA. More information available from US FCC via Universal Licensing System and Coast Guard Vessel Documentation Center.

Last reported at 2017-Nov-02 14:37 UTC. Time now 2017-Nov-19 16:06 UTC.
Position N 42°22' W 071°03'.
Warning: this ship's position is 17 days out of date.

Length 25 m; draft 2 m.

Type: Passenger vessel. MMSI: 367567110.

Date/timePositionNaut miles runAvg speedWind from/ knotsBaromVisibWave heightAir tempDewpointWater temp
2017-Nov-02 14:37N 42°22' W 071°03'0 1.3
2017-Nov-02 14:30N 42°22' W 071°03'816.3
2017-Nov-02 14:00N 42°25' W 070°53'612.8
2017-Nov-02 13:30N 42°31' W 070°53'0 0.0
2017-Nov-01 01:22N 42°31' W 070°53'0 0.6
2017-Nov-01 01:00N 42°31' W 070°53'918.5
2017-Nov-01 00:31N 42°22' W 070°55'611.8
2017-Nov-01 00:00N 42°22' W 071°03'815.4
2017-Oct-31 23:31N 42°24' W 070°53'714.4
2017-Oct-31 23:01N 42°31' W 070°53'0 0.0
2017-Oct-31 22:30N 42°31' W 070°53'714.2
2017-Oct-31 22:00N 42°24' W 070°53'815.6
2017-Oct-31 21:30N 42°22' W 071°03'0 0.0
2017-Oct-31 21:00N 42°22' W 071°03'714.9
2017-Oct-31 20:30N 42°24' W 070°53'714.6
2017-Oct-31 20:00N 42°31' W 070°53'0 0.1
2017-Oct-31 19:31N 42°31' W 070°53'815.3
2017-Oct-31 19:01N 42°24' W 070°54'712.9
2017-Oct-31 18:28N 42°22' W 071°03'0 0.0
2017-Oct-31 18:00N 42°22' W 071°03'815.7
2017-Oct-31 17:31N 42°24' W 070°53'713.7
2017-Oct-31 17:00N 42°31' W 070°53'3 6.7
2017-Oct-31 16:30N 42°29' W 070°49'1223.5
2017-Oct-31 16:01N 42°21' W 071°00'1 1.2
2017-Oct-31 15:30N 42°21' W 071°01'1121.8
2017-Oct-31 15:00N 42°28' W 070°50'4 7.2
2017-Oct-31 14:30N 42°31' W 070°52'1020.2
2017-Oct-31 14:01N 42°22' W 070°56'510.8
2017-Oct-31 13:30N 42°22' W 071°03'0 0.0
2017-Oct-31 13:00N 42°22' W 071°03'0 0.0
2017-Oct-31 12:30N 42°22' W 071°03'0 0.0
2017-Oct-31 12:00N 42°22' W 071°03'817.0
2017-Oct-31 11:30N 42°25' W 070°52'612.4
2017-Oct-31 11:00N 42°31' W 070°53'0 0.0
2017-Oct-31 10:30N 42°31' W 070°53'0 0.0
2017-Oct-29 23:55N 42°31' W 070°53'0 0.0
2017-Oct-29 23:31N 42°31' W 070°53'0 0.0
2017-Oct-29 23:00N 42°31' W 070°53'0 0.0
2017-Oct-29 22:31N 42°31' W 070°53'713.3
2017-Oct-29 22:01N 42°25' W 070°53'816.1
2017-Oct-29 21:31N 42°22' W 071°03'0 0.0
2017-Oct-29 21:00N 42°22' W 071°03'714.6
2017-Oct-29 20:31N 42°24' W 070°54'714.6
2017-Oct-29 20:00N 42°31' W 070°53'0 0.0
2017-Oct-29 19:30N 42°31' W 070°53'714.4
2017-Oct-29 19:00N 42°24' W 070°53'815.3
2017-Oct-29 18:31N 42°22' W 071°03'0 0.0
2017-Oct-29 18:00N 42°22' W 071°03'815.5
2017-Oct-29 17:31N 42°24' W 070°53'713.7
2017-Oct-29 17:00N 42°31' W 070°53'4 7.1
2017-Oct-29 16:30N 42°29' W 070°49'1223.6
2017-Oct-29 16:01N 42°21' W 071°01'1 2.5
2017-Oct-29 15:30N 42°21' W 071°02'1019.7
2017-Oct-29 15:00N 42°27' W 070°51'5 9.8
2017-Oct-29 14:30N 42°31' W 070°53'816.7
2017-Oct-29 14:00N 42°23' W 070°54'612.9
2017-Oct-29 13:30N 42°22' W 071°03'0 0.0
2017-Oct-29 13:00N 42°22' W 071°03'816.9
2017-Oct-29 12:30N 42°24' W 070°52'1 0.1
2017-Oct-28 19:00N 42°24' W 070°53'714.8
2017-Oct-28 18:30N 42°22' W 071°03'0 0.0
2017-Oct-28 18:00N 42°22' W 071°03'817.0
2017-Oct-28 17:30N 42°25' W 070°52'612.2
2017-Oct-28 17:00N 42°31' W 070°53'612.4
2017-Oct-28 16:30N 42°25' W 070°52'917.3
2017-Oct-28 16:00N 42°22' W 071°03'2 4.3
2017-Oct-28 15:31N 42°21' W 071°00'1122.3
2017-Oct-28 15:00N 42°29' W 070°50'3 6.4
2017-Oct-28 14:30N 42°31' W 070°52'918.5
2017-Oct-28 14:00N 42°22' W 070°55'611.8
2017-Oct-28 13:30N 42°22' W 071°03'0 0.0
2017-Oct-28 13:00N 42°22' W 071°03'815.1
2017-Oct-28 12:31N 42°24' W 070°53'713.8
2017-Oct-28 12:00N 42°31' W 070°53'0 0.0
2017-Oct-28 11:30N 42°31' W 070°53'0 0.1
2017-Oct-28 11:00N 42°31' W 070°53'  

Dump ship's entire track history